METAR de aeropuertos de Murcia y cercanos

 

LEMI - Murcia/Corvera
Actualización: 18/01/2022 11:30
Despejado
Despejado
 Viento del SSO
Viento: SSO 6 km/h
Temperatura: 10°C
Rocío: 5°C
Humedad: 71%
Barómetro: 1032 hPa
Resumen: Despejado
Visibilidad: greater than 10 km
2022/01/18 10:30 LEMI 181030Z 20003KT 170V230 CAVOK 10/05 Q1032
LERI - Murcia/Alcantarilla
Actualización: 18/01/2022 11:30
Despejado
Despejado
 Viento del varies
Viento: varies 4 km/h
Temperatura: 7°C
Rocío: 0°C
Humedad: 61%
Barómetro: 1033 hPa
Resumen: Despejado
Visibilidad: greater than 10 km
2022/01/18 10:30 LERI 181030Z VRB02KT CAVOK 07/00 Q1033 NOSIG
LELC - Murcia/San Javier
Actualización: 18/01/2022 11:30
Despejado
Despejado
 Viento del varies
Viento: varies 4 km/h
Temperatura: 12°C
Rocío: 7°C
Humedad: 72%
Barómetro: 1032 hPa
Resumen: Despejado
Visibilidad: greater than 10 km
2022/01/18 10:30 LELC 181030Z VRB02KT CAVOK 12/07 Q1032 NOSIG
 
LEAL - Alicante
Actualización: 18/01/2022 11:30
Despejado
Despejado
 Viento del OSO
Viento: OSO 7 km/h
Temperatura: 12°C
Rocío: 3°C
Humedad: 54%
Barómetro: 1032 hPa
Resumen: Despejado
Visibilidad: greater than 10 km
2022/01/18 10:30 LEAL 181030Z 25004KT 200V290 CAVOK 12/03 Q1032 NOSIG
LEAB - Albacete
Actualización: 18/01/2022 11:30
Despejado
Despejado
 Viento del varies
Viento: varies 4 km/h
Temperatura: 4°C
Rocío: -2°C
Humedad: 65%
Barómetro: 1031 hPa
Resumen: Despejado
Visibilidad: greater than 10 km
2022/01/18 10:30 LEAB 181030Z VRB02KT CAVOK 04/M02 Q1031 NOSIG
LEAM - Almería
Actualización: 18/01/2022 11:30
Despejado
Despejado
 Viento del NNO
Viento: NNO 15 km/h
Temperatura: 13°C
Rocío: 2°C
Humedad: 47%
Barómetro: 1031 hPa
Resumen: Despejado
Visibilidad: greater than 10 km
2022/01/18 10:30 LEAM 181030Z 33008KT CAVOK 13/02 Q1031

La estación de MeteoMurcia.com, publica sus datos en los siguientes proyectos:

Weather Underground PWS IMURCIAP2 Meteoclimatic www.awekas.at

W3Counter
Web Analytics